sensor_id;sensor_type;location;lat;lon;timestamp;pressure;altitude;pressure_sealevel;temperature;humidity
9141;BME280;46330;50.822;7.126;2023-10-09T00:00:07;101444.47;;;14.01;100.00
9141;BME280;46330;50.822;7.126;2023-10-09T00:03:03;101445.38;;;14.00;100.00
9141;BME280;46330;50.822;7.126;2023-10-09T00:05:33;101443.59;;;14.01;100.00
9141;BME280;46330;50.822;7.126;2023-10-09T00:08:13;101439.31;;;13.97;100.00
9141;BME280;46330;50.822;7.126;2023-10-09T00:10:47;101449.78;;;14.00;100.00
9141;BME280;46330;50.822;7.126;2023-10-09T00:13:21;101435.06;;;13.91;100.00
9141;BME280;46330;50.822;7.126;2023-10-09T00:15:55;101437.63;;;13.94;100.00
9141;BME280;46330;50.822;7.126;2023-10-09T00:18:27;101429.84;;;13.88;100.00
9141;BME280;46330;50.822;7.126;2023-10-09T00:20:57;101432.50;;;13.87;100.00
9141;BME280;46330;50.822;7.126;2023-10-09T00:23:28;101432.34;;;13.94;100.00
9141;BME280;46330;50.822;7.126;2023-10-09T00:25:59;101430.50;;;13.98;100.00
9141;BME280;46330;50.822;7.126;2023-10-09T00:28:47;101426.16;;;13.97;100.00
9141;BME280;46330;50.822;7.126;2023-10-09T00:31:18;101428.91;;;13.91;100.00
9141;BME280;46330;50.822;7.126;2023-10-09T00:33:56;101430.69;;;13.89;100.00
9141;BME280;46330;50.822;7.126;2023-10-09T00:36:41;101423.78;;;13.85;100.00
9141;BME280;46330;50.822;7.126;2023-10-09T00:39:18;101423.75;;;13.86;100.00
9141;BME280;46330;50.822;7.126;2023-10-09T00:42:01;101421.16;;;13.85;100.00
9141;BME280;46330;50.822;7.126;2023-10-09T00:44:33;101419.47;;;13.81;100.00
9141;BME280;46330;50.822;7.126;2023-10-09T00:47:06;101414.16;;;13.84;100.00
9141;BME280;46330;50.822;7.126;2023-10-09T00:49:49;101417.66;;;13.84;100.00
9141;BME280;46330;50.822;7.126;2023-10-09T00:52:21;101410.84;;;13.74;100.00
9141;BME280;46330;50.822;7.126;2023-10-09T00:54:59;101408.31;;;13.70;100.00
9141;BME280;46330;50.822;7.126;2023-10-09T00:57:34;101408.38;;;13.67;100.00
9141;BME280;46330;50.822;7.126;2023-10-09T01:00:05;101400.50;;;13.67;100.00
9141;BME280;46330;50.822;7.126;2023-10-09T01:02:50;101405.75;;;13.67;100.00
9141;BME280;46330;50.822;7.126;2023-10-09T01:05:37;101403.91;;;13.70;100.00
9141;BME280;46330;50.822;7.126;2023-10-09T01:08:12;101400.44;;;13.70;100.00
9141;BME280;46330;50.822;7.126;2023-10-09T01:10:51;101395.19;;;13.68;100.00
9141;BME280;46330;50.822;7.126;2023-10-09T01:13:25;101390.00;;;13.64;100.00
9141;BME280;46330;50.822;7.126;2023-10-09T01:16:06;101395.38;;;13.59;100.00
9141;BME280;46330;50.822;7.126;2023-10-09T01:18:35;101398.06;;;13.56;100.00
9141;BME280;46330;50.822;7.126;2023-10-09T01:21:07;101384.09;;;13.54;100.00
9141;BME280;46330;50.822;7.126;2023-10-09T01:23:42;101389.41;;;13.50;100.00
9141;BME280;46330;50.822;7.126;2023-10-09T01:26:30;101390.44;;;13.42;100.00
9141;BME280;46330;50.822;7.126;2023-10-09T01:29:01;101380.91;;;13.37;100.00
9141;BME280;46330;50.822;7.126;2023-10-09T01:31:30;101389.66;;;13.36;100.00
9141;BME280;46330;50.822;7.126;2023-10-09T01:34:04;101377.44;;;13.35;100.00
9141;BME280;46330;50.822;7.126;2023-10-09T01:36:36;101382.75;;;13.32;100.00
9141;BME280;46330;50.822;7.126;2023-10-09T01:39:08;101385.34;;;13.33;100.00
9141;BME280;46330;50.822;7.126;2023-10-09T01:41:50;101387.03;;;13.36;100.00
9141;BME280;46330;50.822;7.126;2023-10-09T01:44:25;101382.75;;;13.32;100.00
9141;BME280;46330;50.822;7.126;2023-10-09T01:47:01;101373.19;;;13.29;100.00
9141;BME280;46330;50.822;7.126;2023-10-09T01:49:37;101373.22;;;13.26;100.00
9141;BME280;46330;50.822;7.126;2023-10-09T01:52:08;101356.78;;;13.17;100.00
9141;BME280;46330;50.822;7.126;2023-10-09T01:54:44;101356.78;;;13.17;100.00
9141;BME280;46330;50.822;7.126;2023-10-09T01:57:16;101350.78;;;13.10;100.00
9141;BME280;46330;50.822;7.126;2023-10-09T01:59:50;101342.06;;;13.05;100.00
9141;BME280;46330;50.822;7.126;2023-10-09T02:02:21;101349.91;;;13.07;100.00
9141;BME280;46330;50.822;7.126;2023-10-09T02:05:02;101342.91;;;13.06;100.00
9141;BME280;46330;50.822;7.126;2023-10-09T02:07:37;101348.16;;;13.09;100.00
9141;BME280;46330;50.822;7.126;2023-10-09T02:10:13;101354.31;;;13.06;100.00
9141;BME280;46330;50.822;7.126;2023-10-09T02:12:59;101362.22;;;13.03;100.00
9141;BME280;46330;50.822;7.126;2023-10-09T02:15:35;101361.34;;;13.04;100.00
9141;BME280;46330;50.822;7.126;2023-10-09T02:18:18;101365.66;;;13.08;100.00
9141;BME280;46330;50.822;7.126;2023-10-09T02:21:04;101359.56;;;13.06;100.00
9141;BME280;46330;50.822;7.126;2023-10-09T02:23:40;101357.84;;;13.04;100.00
9141;BME280;46330;50.822;7.126;2023-10-09T02:26:15;101363.16;;;13.01;100.00
9141;BME280;46330;50.822;7.126;2023-10-09T02:28:46;101352.66;;;13.01;100.00
9141;BME280;46330;50.822;7.126;2023-10-09T02:31:26;101347.47;;;12.96;100.00
9141;BME280;46330;50.822;7.126;2023-10-09T02:34:03;101345.69;;;12.98;100.00
9141;BME280;46330;50.822;7.126;2023-10-09T02:36:32;101346.47;;;13.03;100.00
9141;BME280;46330;50.822;7.126;2023-10-09T02:39:05;101357.03;;;13.00;100.00
9141;BME280;46330;50.822;7.126;2023-10-09T02:41:35;101356.94;;;13.05;100.00
9141;BME280;46330;50.822;7.126;2023-10-09T02:44:16;101364.81;;;13.05;100.00
9141;BME280;46330;50.822;7.126;2023-10-09T02:46:51;101366.53;;;13.10;100.00
9141;BME280;46330;50.822;7.126;2023-10-09T02:49:24;101366.53;;;13.10;100.00
9141;BME280;46330;50.822;7.126;2023-10-09T02:51:52;101353.34;;;13.13;100.00
9141;BME280;46330;50.822;7.126;2023-10-09T02:54:20;101353.44;;;13.06;100.00
9141;BME280;46330;50.822;7.126;2023-10-09T02:57:03;101352.56;;;13.05;100.00
9141;BME280;46330;50.822;7.126;2023-10-09T02:59:35;101338.59;;;13.03;100.00
9141;BME280;46330;50.822;7.126;2023-10-09T03:02:05;101349.97;;;13.04;100.00
9141;BME280;46330;50.822;7.126;2023-10-09T03:04:33;101346.41;;;13.06;100.00
9141;BME280;46330;50.822;7.126;2023-10-09T03:07:02;101349.91;;;13.07;100.00
9141;BME280;46330;50.822;7.126;2023-10-09T03:09:31;101349.00;;;13.08;100.00
9141;BME280;46330;50.822;7.126;2023-10-09T03:12:04;101346.38;;;13.11;100.00
9141;BME280;46330;50.822;7.126;2023-10-09T03:14:37;101348.16;;;13.09;100.00
9141;BME280;46330;50.822;7.126;2023-10-09T03:17:05;101344.66;;;13.10;100.00
9141;BME280;46330;50.822;7.126;2023-10-09T03:19:39;101339.41;;;13.05;100.00
9141;BME280;46330;50.822;7.126;2023-10-09T03:22:08;101348.22;;;13.04;100.00
9141;BME280;46330;50.822;7.126;2023-10-09T03:24:38;101339.47;;;13.02;100.00
9141;BME280;46330;50.822;7.126;2023-10-09T03:27:13;101345.69;;;12.98;100.00
9141;BME280;46330;50.822;7.126;2023-10-09T03:29:42;101342.91;;;13.06;100.00
9141;BME280;46330;50.822;7.126;2023-10-09T03:32:16;101339.47;;;13.04;100.00
9141;BME280;46330;50.822;7.126;2023-10-09T03:34:46;101341.19;;;13.05;100.00
9141;BME280;46330;50.822;7.126;2023-10-09T03:37:16;101342.97;;;13.03;100.00
9141;BME280;46330;50.822;7.126;2023-10-09T03:39:49;101335.97;;;13.03;100.00
9141;BME280;46330;50.822;7.126;2023-10-09T03:42:23;101334.22;;;13.02;100.00
9141;BME280;46330;50.822;7.126;2023-10-09T03:44:51;101342.91;;;13.07;100.00
9141;BME280;46330;50.822;7.126;2023-10-09T03:47:21;101344.66;;;13.07;100.00
9141;BME280;46330;50.822;7.126;2023-10-09T03:49:51;101343.75;;;13.11;100.00
9141;BME280;46330;50.822;7.126;2023-10-09T03:52:21;101339.41;;;13.05;100.00
9141;BME280;46330;50.822;7.126;2023-10-09T03:54:53;101342.97;;;13.03;100.00
9141;BME280;46330;50.822;7.126;2023-10-09T03:57:23;101346.53;;;13.00;100.00
9141;BME280;46330;50.822;7.126;2023-10-09T03:59:51;101339.59;;;12.98;100.00
9141;BME280;46330;50.822;7.126;2023-10-09T04:02:19;101337.84;;;12.97;100.00
9141;BME280;46330;50.822;7.126;2023-10-09T04:04:49;101337.88;;;12.95;100.00
9141;BME280;46330;50.822;7.126;2023-10-09T04:07:18;101340.47;;;12.97;100.00
9141;BME280;46330;50.822;7.126;2023-10-09T04:09:48;101339.63;;;12.94;100.00
9141;BME280;46330;50.822;7.126;2023-10-09T04:12:26;101354.47;;;12.95;100.00
9141;BME280;46330;50.822;7.126;2023-10-09T04:14:57;101345.72;;;12.97;100.00
9141;BME280;46330;50.822;7.126;2023-10-09T04:17:28;101330.13;;;12.87;100.00
9141;BME280;46330;50.822;7.126;2023-10-09T04:20:04;101333.63;;;12.86;100.00
9141;BME280;46330;50.822;7.126;2023-10-09T04:22:49;101327.56;;;12.84;100.00
9141;BME280;46330;50.822;7.126;2023-10-09T04:25:18;101331.22;;;12.76;100.00
9141;BME280;46330;50.822;7.126;2023-10-09T04:27:55;101328.66;;;12.73;100.00
9141;BME280;46330;50.822;7.126;2023-10-09T04:30:35;101326.84;;;12.76;100.00
9141;BME280;46330;50.822;7.126;2023-10-09T04:33:07;101320.72;;;12.76;100.00
9141;BME280;46330;50.822;7.126;2023-10-09T04:35:55;101315.59;;;12.68;100.00
9141;BME280;46330;50.822;7.126;2023-10-09T04:38:40;101322.56;;;12.69;100.00
9141;BME280;46330;50.822;7.126;2023-10-09T04:41:19;101318.22;;;12.68;100.00
9141;BME280;46330;50.822;7.126;2023-10-09T04:43:56;101321.66;;;12.70;100.00
9141;BME280;46330;50.822;7.126;2023-10-09T04:46:43;101309.41;;;12.72;100.00
9141;BME280;46330;50.822;7.126;2023-10-09T04:49:11;101318.97;;;12.73;100.00
9141;BME280;46330;50.822;7.126;2023-10-09T04:51:54;101315.50;;;12.73;100.00
9141;BME280;46330;50.822;7.126;2023-10-09T04:54:32;101317.22;;;12.74;100.00
9141;BME280;46330;50.822;7.126;2023-10-09T04:57:26;101326.78;;;12.78;100.00
9141;BME280;46330;50.822;7.126;2023-10-09T04:59:57;101306.78;;;12.72;100.00
9141;BME280;46330;50.822;7.126;2023-10-09T05:02:26;101319.84;;;12.74;100.00
9141;BME280;46330;50.822;7.126;2023-10-09T05:05:03;101325.91;;;12.79;100.00
9141;BME280;46330;50.822;7.126;2023-10-09T05:08:03;101308.41;;;12.79;100.00
9141;BME280;46330;50.822;7.126;2023-10-09T05:10:46;101304.91;;;12.77;100.00
9141;BME280;46330;50.822;7.126;2023-10-09T05:13:33;101302.28;;;12.79;100.00
9141;BME280;46330;50.822;7.126;2023-10-09T05:16:12;101313.66;;;12.79;100.00
9141;BME280;46330;50.822;7.126;2023-10-09T05:18:46;101313.59;;;12.82;100.00
9141;BME280;46330;50.822;7.126;2023-10-09T05:21:24;101324.81;;;12.89;100.00
9141;BME280;46330;50.822;7.126;2023-10-09T05:24:04;101320.41;;;12.92;100.00
9141;BME280;46330;50.822;7.126;2023-10-09T05:26:47;101315.19;;;12.89;100.00
9141;BME280;46330;50.822;7.126;2023-10-09T05:29:39;101314.44;;;12.84;100.00
9141;BME280;46330;50.822;7.126;2023-10-09T05:32:17;101317.91;;;12.85;100.00
9141;BME280;46330;50.822;7.126;2023-10-09T05:34:54;101313.50;;;12.87;100.00
9141;BME280;46330;50.822;7.126;2023-10-09T05:37:42;101310.97;;;12.82;100.00
9141;BME280;46330;50.822;7.126;2023-10-09T05:40:13;101306.63;;;12.80;100.00
9141;BME280;46330;50.822;7.126;2023-10-09T05:42:49;101306.66;;;12.77;100.00
9141;BME280;46330;50.822;7.126;2023-10-09T05:45:29;101301.41;;;12.77;100.00
9141;BME280;46330;50.822;7.126;2023-10-09T05:48:16;101310.06;;;12.83;100.00
9141;BME280;46330;50.822;7.126;2023-10-09T05:51:02;101310.91;;;12.85;100.00
9141;BME280;46330;50.822;7.126;2023-10-09T05:53:46;101316.13;;;12.88;100.00
9141;BME280;46330;50.822;7.126;2023-10-09T05:56:31;101322.25;;;12.87;100.00
9141;BME280;46330;50.822;7.126;2023-10-09T05:59:16;101316.94;;;12.92;100.00
9141;BME280;46330;50.822;7.126;2023-10-09T06:02:01;101309.81;;;12.97;100.00
9141;BME280;46330;50.822;7.126;2023-10-09T06:04:45;101315.94;;;12.98;100.00
9141;BME280;46330;50.822;7.126;2023-10-09T06:07:21;101317.69;;;12.97;100.00
9141;BME280;46330;50.822;7.126;2023-10-09T06:10:08;101322.09;;;12.97;100.00
9141;BME280;46330;50.822;7.126;2023-10-09T06:12:46;101318.41;;;13.05;100.00
9141;BME280;46330;50.822;7.126;2023-10-09T06:15:21;101327.13;;;13.09;100.00
9141;BME280;46330;50.822;7.126;2023-10-09T06:18:15;101317.44;;;13.12;100.00
9141;BME280;46330;50.822;7.126;2023-10-09T06:21:00;101320.81;;;13.19;100.00
9141;BME280;46330;50.822;7.126;2023-10-09T06:23:35;101320.78;;;13.20;100.00
9141;BME280;46330;50.822;7.126;2023-10-09T06:26:36;101324.09;;;13.30;100.00
9141;BME280;46330;50.822;7.126;2023-10-09T06:29:04;101325.81;;;13.32;100.00
9141;BME280;46330;50.822;7.126;2023-10-09T06:31:41;101332.66;;;13.39;100.00
9141;BME280;46330;50.822;7.126;2023-10-09T06:34:23;101345.75;;;13.44;100.00
9141;BME280;46330;50.822;7.126;2023-10-09T06:37:01;101339.47;;;13.51;100.00
9141;BME280;46330;50.822;7.126;2023-10-09T06:39:34;101341.06;;;13.58;100.00
9141;BME280;46330;50.822;7.126;2023-10-09T06:42:19;101336.59;;;13.63;100.00
9141;BME280;46330;50.822;7.126;2023-10-09T06:45:14;101337.34;;;13.70;100.00
9141;BME280;46330;50.822;7.126;2023-10-09T06:47:46;101344.22;;;13.75;100.00
9141;BME280;46330;50.822;7.126;2023-10-09T06:50:23;101355.38;;;13.86;100.00
9141;BME280;46330;50.822;7.126;2023-10-09T06:53:14;101362.19;;;13.95;100.00
9141;BME280;46330;50.822;7.126;2023-10-09T06:56:13;101364.59;;;14.06;100.00
9141;BME280;46330;50.822;7.126;2023-10-09T06:58:49;101366.94;;;14.19;100.00
9141;BME280;46330;50.822;7.126;2023-10-09T07:01:21;101363.31;;;14.23;100.00
9141;BME280;46330;50.822;7.126;2023-10-09T07:04:09;101377.00;;;14.39;100.00
9141;BME280;46330;50.822;7.126;2023-10-09T07:06:47;101373.09;;;14.57;100.00
9141;BME280;46330;50.822;7.126;2023-10-09T07:09:17;101376.09;;;14.78;100.00
9141;BME280;46330;50.822;7.126;2023-10-09T07:11:47;101381.84;;;14.94;100.00
9141;BME280;46330;50.822;7.126;2023-10-09T07:14:26;101386.88;;;15.03;100.00
9141;BME280;46330;50.822;7.126;2023-10-09T07:17:19;101391.75;;;15.17;100.00
9141;BME280;46330;50.822;7.126;2023-10-09T07:19:54;101403.06;;;15.22;100.00
9141;BME280;46330;50.822;7.126;2023-10-09T07:22:36;101401.06;;;15.31;100.00
9141;BME280;46330;50.822;7.126;2023-10-09T07:25:42;101399.13;;;15.38;100.00
9141;BME280;46330;50.822;7.126;2023-10-09T07:28:22;101406.75;;;15.48;100.00
9141;BME280;46330;50.822;7.126;2023-10-09T07:31:17;101397.69;;;15.58;100.00
9141;BME280;46330;50.822;7.126;2023-10-09T07:33:51;101405.25;;;15.72;100.00
9141;BME280;46330;50.822;7.126;2023-10-09T07:36:24;101407.44;;;15.87;100.00
9141;BME280;46330;50.822;7.126;2023-10-09T07:39:02;101404.47;;;15.98;100.00
9141;BME280;46330;50.822;7.126;2023-10-09T07:41:42;101409.38;;;16.10;100.00
9141;BME280;46330;50.822;7.126;2023-10-09T07:44:23;101407.03;;;16.30;100.00
9141;BME280;46330;50.822;7.126;2023-10-09T07:47:10;101413.03;;;16.35;100.00
9141;BME280;46330;50.822;7.126;2023-10-09T07:49:45;101402.25;;;16.43;100.00
9141;BME280;46330;50.822;7.126;2023-10-09T07:52:20;101395.19;;;16.43;100.00
9141;BME280;46330;50.822;7.126;2023-10-09T07:54:49;101396.75;;;16.49;100.00
9141;BME280;46330;50.822;7.126;2023-10-09T07:57:19;101401.78;;;16.58;100.00
9141;BME280;46330;50.822;7.126;2023-10-09T07:59:52;101387.38;;;16.68;100.00
9141;BME280;46330;50.822;7.126;2023-10-09T08:02:38;101407.09;;;16.84;100.00
9141;BME280;46330;50.822;7.126;2023-10-09T08:05:07;101420.41;;;17.07;100.00
9141;BME280;46330;50.822;7.126;2023-10-09T08:07:45;101410.38;;;17.17;100.00
9141;BME280;46330;50.822;7.126;2023-10-09T08:10:38;101417.72;;;17.09;100.00
9141;BME280;46330;50.822;7.126;2023-10-09T08:13:25;101409.81;;;17.09;100.00
9141;BME280;46330;50.822;7.126;2023-10-09T08:16:10;101419.72;;;17.02;100.00
9141;BME280;46330;50.822;7.126;2023-10-09T08:18:47;101420.00;;;16.93;100.00
9141;BME280;46330;50.822;7.126;2023-10-09T08:21:18;101426.09;;;16.95;100.00
9141;BME280;46330;50.822;7.126;2023-10-09T08:24:08;101420.81;;;16.95;100.00
9141;BME280;46330;50.822;7.126;2023-10-09T08:26:57;101426.78;;;17.02;100.00
9141;BME280;46330;50.822;7.126;2023-10-09T08:29:41;101426.28;;;17.15;100.00
9141;BME280;46330;50.822;7.126;2023-10-09T08:32:13;101433.28;;;17.18;100.00
9141;BME280;46330;50.822;7.126;2023-10-09T08:35:08;101424.59;;;17.14;100.00
9141;BME280;46330;50.822;7.126;2023-10-09T08:37:56;101423.00;;;17.09;100.00
9141;BME280;46330;50.822;7.126;2023-10-09T08:40:31;101432.44;;;17.16;100.00
9141;BME280;46330;50.822;7.126;2023-10-09T08:43:09;101428.75;;;17.22;100.00
9141;BME280;46330;50.822;7.126;2023-10-09T08:45:40;101426.03;;;17.23;100.00
9141;BME280;46330;50.822;7.126;2023-10-09T08:48:09;101425.59;;;17.10;100.00
9141;BME280;46330;50.822;7.126;2023-10-09T08:50:43;101415.13;;;17.07;100.00
9141;BME280;46330;50.822;7.126;2023-10-09T08:53:12;101412.28;;;17.13;100.00
9141;BME280;46330;50.822;7.126;2023-10-09T08:55:40;101405.56;;;17.03;100.00
9141;BME280;46330;50.822;7.126;2023-10-09T08:58:09;101413.69;;;16.97;100.00
9141;BME280;46330;50.822;7.126;2023-10-09T09:00:48;101405.53;;;17.05;100.00
9141;BME280;46330;50.822;7.126;2023-10-09T09:03:17;101396.72;;;17.04;100.00
9141;BME280;46330;50.822;7.126;2023-10-09T09:05:58;101442.69;;;17.27;100.00
9141;BME280;46330;50.822;7.126;2023-10-09T09:08:28;101461.91;;;17.58;98.99
9141;BME280;46330;50.822;7.126;2023-10-09T09:10:57;101454.97;;;17.79;97.45
9141;BME280;46330;50.822;7.126;2023-10-09T09:13:32;101445.69;;;17.92;95.68
9141;BME280;46330;50.822;7.126;2023-10-09T09:16:02;101455.25;;;17.96;96.72
9141;BME280;46330;50.822;7.126;2023-10-09T09:18:30;101462.44;;;18.15;94.73
9141;BME280;46330;50.822;7.126;2023-10-09T09:21:17;101452.59;;;18.42;93.01
9141;BME280;46330;50.822;7.126;2023-10-09T09:23:56;101447.03;;;18.71;92.82
9141;BME280;46330;50.822;7.126;2023-10-09T09:26:35;101431.38;;;18.65;92.08
9141;BME280;46330;50.822;7.126;2023-10-09T09:29:12;101403.38;;;18.37;92.78
9141;BME280;46330;50.822;7.126;2023-10-09T09:31:53;101371.31;;;18.21;94.89
9141;BME280;46330;50.822;7.126;2023-10-09T09:34:21;101345.00;;;18.16;95.72
9141;BME280;46330;50.822;7.126;2023-10-09T09:36:54;101360.47;;;18.27;95.67
9141;BME280;46330;50.822;7.126;2023-10-09T09:39:25;101379.09;;;18.91;90.96
9141;BME280;46330;50.822;7.126;2023-10-09T09:42:11;101363.84;;;19.16;91.02
9141;BME280;46330;50.822;7.126;2023-10-09T09:44:42;101372.09;;;19.30;88.86
9141;BME280;46330;50.822;7.126;2023-10-09T09:47:14;101368.25;;;19.57;88.36
9141;BME280;46330;50.822;7.126;2023-10-09T09:49:55;101350.06;;;20.43;85.12
9141;BME280;46330;50.822;7.126;2023-10-09T09:52:31;101341.03;;;20.99;79.93
9141;BME280;46330;50.822;7.126;2023-10-09T09:55:07;101348.13;;;21.17;79.16
9141;BME280;46330;50.822;7.126;2023-10-09T09:57:41;101343.72;;;21.33;75.80
9141;BME280;46330;50.822;7.126;2023-10-09T10:00:13;101341.16;;;21.97;75.56
9141;BME280;46330;50.822;7.126;2023-10-09T10:03:01;101346.22;;;22.02;71.65
9141;BME280;46330;50.822;7.126;2023-10-09T10:05:34;101342.78;;;22.31;70.68
9141;BME280;46330;50.822;7.126;2023-10-09T10:08:03;101338.50;;;21.80;72.48
9141;BME280;46330;50.822;7.126;2023-10-09T10:10:36;101348.63;;;22.06;71.20
9141;BME280;46330;50.822;7.126;2023-10-09T10:13:15;101335.28;;;21.58;70.08
9141;BME280;46330;50.822;7.126;2023-10-09T10:15:58;101328.28;;;21.72;69.99
9141;BME280;46330;50.822;7.126;2023-10-09T10:18:32;101342.72;;;21.84;69.80
9141;BME280;46330;50.822;7.126;2023-10-09T10:21:12;101337.03;;;22.07;67.30
9141;BME280;46330;50.822;7.126;2023-10-09T10:23:43;101341.50;;;22.22;65.67
9141;BME280;46330;50.822;7.126;2023-10-09T10:26:17;101335.00;;;22.58;66.34
9141;BME280;46330;50.822;7.126;2023-10-09T10:29:15;101331.56;;;22.56;61.45
9141;BME280;46330;50.822;7.126;2023-10-09T10:31:57;101330.81;;;22.54;60.66
9141;BME280;46330;50.822;7.126;2023-10-09T10:34:52;101322.19;;;23.24;58.84
9141;BME280;46330;50.822;7.126;2023-10-09T10:37:35;101324.16;;;23.20;56.47
9141;BME280;46330;50.822;7.126;2023-10-09T10:40:06;101324.97;;;23.22;58.50
9141;BME280;46330;50.822;7.126;2023-10-09T10:42:46;101325.97;;;23.20;57.16
9141;BME280;46330;50.822;7.126;2023-10-09T10:45:24;101330.38;;;23.21;57.10
9141;BME280;46330;50.822;7.126;2023-10-09T10:48:02;101322.28;;;23.36;55.74
9141;BME280;46330;50.822;7.126;2023-10-09T10:50:37;101320.41;;;23.67;53.51
9141;BME280;46330;50.822;7.126;2023-10-09T10:53:11;101324.06;;;23.66;53.33
9141;BME280;46330;50.822;7.126;2023-10-09T10:55:57;101324.91;;;23.52;53.94
9141;BME280;46330;50.822;7.126;2023-10-09T10:58:25;101330.25;;;23.52;55.62
9141;BME280;46330;50.822;7.126;2023-10-09T11:01:02;101325.47;;;23.57;56.29
9141;BME280;46330;50.822;7.126;2023-10-09T11:03:42;101327.00;;;23.61;53.96
9141;BME280;46330;50.822;7.126;2023-10-09T11:06:29;101330.19;;;24.08;50.98
9141;BME280;46330;50.822;7.126;2023-10-09T11:09:06;101330.41;;;24.05;51.76
9141;BME280;46330;50.822;7.126;2023-10-09T11:11:48;101331.94;;;24.09;51.37
9141;BME280;46330;50.822;7.126;2023-10-09T11:14:16;101326.31;;;24.00;53.02
9141;BME280;46330;50.822;7.126;2023-10-09T11:16:50;101333.28;;;23.60;53.35
9141;BME280;46330;50.822;7.126;2023-10-09T11:19:25;101332.34;;;23.61;54.85
9141;BME280;46330;50.822;7.126;2023-10-09T11:22:00;101338.72;;;23.73;53.86
9141;BME280;46330;50.822;7.126;2023-10-09T11:24:48;101340.28;;;23.63;54.50
9141;BME280;46330;50.822;7.126;2023-10-09T11:27:31;101340.75;;;23.55;54.86
9141;BME280;46330;50.822;7.126;2023-10-09T11:30:05;101343.78;;;23.77;53.41
9141;BME280;46330;50.822;7.126;2023-10-09T11:32:38;101342.38;;;23.72;53.27
9141;BME280;46330;50.822;7.126;2023-10-09T11:35:10;101346.66;;;23.46;53.04
9141;BME280;46330;50.822;7.126;2023-10-09T11:37:39;101332.34;;;23.47;54.59
9141;BME280;46330;50.822;7.126;2023-10-09T11:40:27;101340.34;;;23.61;52.43
9141;BME280;46330;50.822;7.126;2023-10-09T11:43:00;101334.91;;;23.77;53.36
9141;BME280;46330;50.822;7.126;2023-10-09T11:45:27;101331.19;;;23.93;54.23
9141;BME280;46330;50.822;7.126;2023-10-09T11:48:16;101325.25;;;24.17;54.00
9141;BME280;46330;50.822;7.126;2023-10-09T11:50:52;101330.38;;;24.20;52.67
9141;BME280;46330;50.822;7.126;2023-10-09T11:53:22;101331.56;;;23.87;52.47
9141;BME280;46330;50.822;7.126;2023-10-09T11:56:03;101322.63;;;23.74;55.24
9141;BME280;46330;50.822;7.126;2023-10-09T11:58:31;101325.47;;;23.57;55.16
9141;BME280;46330;50.822;7.126;2023-10-09T12:00:59;101327.00;;;23.61;54.64
9141;BME280;46330;50.822;7.126;2023-10-09T12:03:31;101326.69;;;23.94;54.85
9141;BME280;46330;50.822;7.126;2023-10-09T12:06:00;101335.94;;;24.02;55.94
9141;BME280;46330;50.822;7.126;2023-10-09T12:08:32;101332.53;;;24.00;54.24
9141;BME280;46330;50.822;7.126;2023-10-09T12:11:01;101326.13;;;24.03;55.13
9141;BME280;46330;50.822;7.126;2023-10-09T12:13:31;101327.84;;;23.90;56.80
9141;BME280;46330;50.822;7.126;2023-10-09T12:15:59;101334.63;;;23.67;57.17
9141;BME280;46330;50.822;7.126;2023-10-09T12:18:27;101327.34;;;23.97;57.99
9141;BME280;46330;50.822;7.126;2023-10-09T12:20:55;101320.56;;;24.20;58.90
9141;BME280;46330;50.822;7.126;2023-10-09T12:23:29;101317.59;;;24.25;55.40
9141;BME280;46330;50.822;7.126;2023-10-09T12:26:04;101311.88;;;24.02;56.25
9141;BME280;46330;50.822;7.126;2023-10-09T12:28:41;101316.66;;;23.97;58.01
9141;BME280;46330;50.822;7.126;2023-10-09T12:31:13;101311.22;;;23.99;55.76
9141;BME280;46330;50.822;7.126;2023-10-09T12:33:42;101312.69;;;23.90;57.28
9141;BME280;46330;50.822;7.126;2023-10-09T12:36:11;101311.50;;;23.94;57.36
9141;BME280;46330;50.822;7.126;2023-10-09T12:38:44;101326.22;;;23.73;58.12
9141;BME280;46330;50.822;7.126;2023-10-09T12:41:18;101326.50;;;23.83;57.77
9141;BME280;46330;50.822;7.126;2023-10-09T12:43:52;101325.56;;;23.55;56.67
9141;BME280;46330;50.822;7.126;2023-10-09T12:46:20;101324.81;;;23.53;56.26
9141;BME280;46330;50.822;7.126;2023-10-09T12:48:49;101324.31;;;23.61;57.58
9141;BME280;46330;50.822;7.126;2023-10-09T12:51:22;101320.91;;;23.59;56.91
9141;BME280;46330;50.822;7.126;2023-10-09T12:53:57;101309.53;;;23.41;57.32
9141;BME280;46330;50.822;7.126;2023-10-09T12:56:27;101303.53;;;23.38;56.33
9141;BME280;46330;50.822;7.126;2023-10-09T12:59:00;101299.28;;;23.20;54.39
9141;BME280;46330;50.822;7.126;2023-10-09T13:01:31;101310.75;;;23.36;55.68
9141;BME280;46330;50.822;7.126;2023-10-09T13:04:04;101306.66;;;23.30;55.62
9141;BME280;46330;50.822;7.126;2023-10-09T13:06:38;101313.72;;;23.31;55.54
9141;BME280;46330;50.822;7.126;2023-10-09T13:09:10;101312.88;;;23.45;55.45
9141;BME280;46330;50.822;7.126;2023-10-09T13:11:42;101320.22;;;23.41;54.20
9141;BME280;46330;50.822;7.126;2023-10-09T13:14:14;101320.00;;;23.30;55.54
9141;BME280;46330;50.822;7.126;2023-10-09T13:16:46;101311.94;;;23.02;55.44
9141;BME280;46330;50.822;7.126;2023-10-09T13:19:16;101314.16;;;23.10;56.10
9141;BME280;46330;50.822;7.126;2023-10-09T13:21:44;101318.16;;;22.73;57.25
9141;BME280;46330;50.822;7.126;2023-10-09T13:24:15;101321.81;;;22.86;56.66
9141;BME280;46330;50.822;7.126;2023-10-09T13:26:45;101325.63;;;22.82;57.65
9141;BME280;46330;50.822;7.126;2023-10-09T13:29:17;101321.41;;;22.78;58.68
9141;BME280;46330;50.822;7.126;2023-10-09T13:31:49;101330.03;;;22.67;58.67
9141;BME280;46330;50.822;7.126;2023-10-09T13:34:19;101327.88;;;22.58;57.49
9141;BME280;46330;50.822;7.126;2023-10-09T13:36:47;101331.84;;;22.67;59.22
9141;BME280;46330;50.822;7.126;2023-10-09T13:39:20;101330.66;;;22.72;58.35